sensor_id;sensor_type;location;lat;lon;timestamp;P1;P2;P0
50041;PMS7003;44598;51.606;5.912;2023-03-08T00:24:19;27.13;24.64;11.35
50041;PMS7003;44598;51.606;5.912;2023-03-08T00:37:38;27.01;25.08;11.02
50041;PMS7003;44598;51.606;5.912;2023-03-08T00:50:58;27.85;25.41;11.45
50041;PMS7003;44598;51.606;5.912;2023-03-08T01:04:17;29.65;26.5;11.78
50041;PMS7003;44598;51.606;5.912;2023-03-08T01:44:16;29.53;26.39;11.89
50041;PMS7003;44598;51.606;5.912;2023-03-08T01:57:36;29.41;26.06;12.44
50041;PMS7003;44598;51.606;5.912;2023-03-08T02:10:55;30.01;27.04;12.98
50041;PMS7003;44598;51.606;5.912;2023-03-08T02:24:15;31.69;27.7;13.09
50041;PMS7003;44598;51.606;5.912;2023-03-08T03:17:34;34.82;29.66;14.29
50041;PMS7003;44598;51.606;5.912;2023-03-08T03:30:53;34.7;29.44;14.18
50041;PMS7003;44598;51.606;5.912;2023-03-08T03:57:32;34.1;29.44;13.74
50041;PMS7003;44598;51.606;5.912;2023-03-08T04:10:52;36.26;30.2;13.42
50041;PMS7003;44598;51.606;5.912;2023-03-08T05:44:09;38.42;32.16;13.53
50041;PMS7003;44598;51.606;5.912;2023-03-08T05:57:29;38.9;32.27;13.74
50041;PMS7003;44598;51.606;5.912;2023-03-08T06:10:49;40.82;33.91;14.4
50041;PMS7003;44598;51.606;5.912;2023-03-08T07:04:07;23.29;22.9;7.97
50041;PMS7003;44598;51.606;5.912;2023-03-08T07:17:27;21.61;21.7;9.17
50041;PMS7003;44598;51.606;5.912;2023-03-08T07:44:06;20.77;21.59;7.97
50041;PMS7003;44598;51.606;5.912;2023-03-08T07:57:26;15.13;16.9;5.9
50041;PMS7003;44598;51.606;5.912;2023-03-08T08:10:45;10.45;12.22;4.8
50041;PMS7003;44598;51.606;5.912;2023-03-08T08:24:05;11.53;13.2;4.7
50041;PMS7003;44598;51.606;5.912;2023-03-08T08:37:25;6.73;9.06;3.61
50041;PMS7003;44598;51.606;5.912;2023-03-08T08:50:44;8.29;10.47;4.48
50041;PMS7003;44598;51.606;5.912;2023-03-08T09:04:04;15.25;16.69;6.55
50041;PMS7003;44598;51.606;5.912;2023-03-08T09:17:24;18.01;19.3;7.64
50041;PMS7003;44598;51.606;5.912;2023-03-08T09:30:43;24.85;23.44;8.73
50041;PMS7003;44598;51.606;5.912;2023-03-08T09:44:03;25.09;23.44;8.84
50041;PMS7003;44598;51.606;5.912;2023-03-08T10:10:42;25.33;24.1;9.82
50041;PMS7003;44598;51.606;5.912;2023-03-08T10:24:02;25.93;24.43;10.15
50041;PMS7003;44598;51.606;5.912;2023-03-08T10:37:21;20.53;20.72;8.84
50041;PMS7003;44598;51.606;5.912;2023-03-08T10:50:41;21.73;21.7;8.84
50041;PMS7003;44598;51.606;5.912;2023-03-08T11:04:02;122.38;43.88;17.61
50041;PMS7003;44598;51.606;5.912;2023-03-08T12:10:40;19.93;15.71;6.22
50041;PMS7003;44598;51.606;5.912;2023-03-08T12:24:00;11.65;13.09;5.57
50041;PMS7003;44598;51.606;5.912;2023-03-08T12:37:20;14.41;14.94;5.46
50041;PMS7003;44598;51.606;5.912;2023-03-08T13:03:59;10.93;13.2;5.68
50041;PMS7003;44598;51.606;5.912;2023-03-08T13:17:18;11.29;13.09;5.46
50041;PMS7003;44598;51.606;5.912;2023-03-08T13:30:38;12.25;14.29;6.0
50041;PMS7003;44598;51.606;5.912;2023-03-08T13:43:58;9.25;11.56;5.02
50041;PMS7003;44598;51.606;5.912;2023-03-08T13:57:17;10.45;12.54;5.02
50041;PMS7003;44598;51.606;5.912;2023-03-08T14:10:37;9.49;11.78;4.91
50041;PMS7003;44598;51.606;5.912;2023-03-08T14:23:57;10.93;12.98;5.13
50041;PMS7003;44598;51.606;5.912;2023-03-08T14:37:16;11.65;13.63;5.46
50041;PMS7003;44598;51.606;5.912;2023-03-08T14:50:36;9.61;12.0;4.91
50041;PMS7003;44598;51.606;5.912;2023-03-08T15:43:54;8.53;10.8;4.91
50041;PMS7003;44598;51.606;5.912;2023-03-08T15:57:14;7.09;9.71;4.59
50041;PMS7003;44598;51.606;5.912;2023-03-08T16:10:34;6.85;9.49;4.48
50041;PMS7003;44598;51.606;5.912;2023-03-08T16:23:53;8.05;10.36;4.59
50041;PMS7003;44598;51.606;5.912;2023-03-08T16:37:13;8.17;10.69;4.8
50041;PMS7003;44598;51.606;5.912;2023-03-08T16:50:32;7.57;10.15;5.02
50041;PMS7003;44598;51.606;5.912;2023-03-08T17:03:52;9.85;12.0;5.57
50041;PMS7003;44598;51.606;5.912;2023-03-08T17:30:31;13.09;15.16;6.33
50041;PMS7003;44598;51.606;5.912;2023-03-08T17:43:51;14.05;15.81;5.9
50041;PMS7003;44598;51.606;5.912;2023-03-08T17:57:11;17.53;18.76;7.53
50041;PMS7003;44598;51.606;5.912;2023-03-08T18:10:30;16.57;17.99;7.09
50041;PMS7003;44598;51.606;5.912;2023-03-08T18:23:50;16.33;17.89;7.09
50041;PMS7003;44598;51.606;5.912;2023-03-08T18:50:29;19.21;20.5;8.29
50041;PMS7003;44598;51.606;5.912;2023-03-08T19:03:49;18.85;20.07;8.08
50041;PMS7003;44598;51.606;5.912;2023-03-08T19:17:08;20.65;21.48;8.08
50041;PMS7003;44598;51.606;5.912;2023-03-08T19:30:28;22.57;22.68;8.95
50041;PMS7003;44598;51.606;5.912;2023-03-08T19:43:47;23.65;23.12;9.49
50041;PMS7003;44598;51.606;5.912;2023-03-08T19:57:07;23.29;23.34;8.95
50041;PMS7003;44598;51.606;5.912;2023-03-08T20:10:27;23.17;23.12;8.95
50041;PMS7003;44598;51.606;5.912;2023-03-08T20:23:46;20.29;21.26;8.29
50041;PMS7003;44598;51.606;5.912;2023-03-08T20:37:06;23.89;23.44;8.4
50041;PMS7003;44598;51.606;5.912;2023-03-08T21:03:45;25.09;24.21;9.06
50041;PMS7003;44598;51.606;5.912;2023-03-08T21:17:05;28.33;25.19;9.6
50041;PMS7003;44598;51.606;5.912;2023-03-08T21:30:25;28.69;26.17;10.04
50041;PMS7003;44598;51.606;5.912;2023-03-08T21:43:44;27.85;25.52;9.38
50041;PMS7003;44598;51.606;5.912;2023-03-08T21:57:04;31.93;28.24;9.82
50041;PMS7003;44598;51.606;5.912;2023-03-08T22:10:23;29.29;26.5;9.27
50041;PMS7003;44598;51.606;5.912;2023-03-08T22:23:43;31.09;27.48;9.6
50041;PMS7003;44598;51.606;5.912;2023-03-08T23:03:42;30.85;27.26;9.82
50041;PMS7003;44598;51.606;5.912;2023-03-08T23:17:02;33.49;28.35;11.02
50041;PMS7003;44598;51.606;5.912;2023-03-08T23:30:21;33.49;29.11;10.91
50041;PMS7003;44598;51.606;5.912;2023-03-08T23:43:41;33.74;29.44;11.24
50041;PMS7003;44598;51.606;5.912;2023-03-08T23:57:01;34.7;29.66;11.24
